sensor_id;sensor_type;location;lat;lon;timestamp;P1;durP1;ratioP1;P2;durP2;ratioP2
23236;SDS011;11787;52.018;8.570;2023-06-04T00:01:22;4.30;;;2.85;;
23236;SDS011;11787;52.018;8.570;2023-06-04T00:03:47;6.05;;;2.80;;
23236;SDS011;11787;52.018;8.570;2023-06-04T00:06:13;3.33;;;2.65;;
23236;SDS011;11787;52.018;8.570;2023-06-04T00:08:39;4.18;;;2.58;;
23236;SDS011;11787;52.018;8.570;2023-06-04T00:11:04;6.95;;;3.15;;
23236;SDS011;11787;52.018;8.570;2023-06-04T00:13:30;6.53;;;3.10;;
23236;SDS011;11787;52.018;8.570;2023-06-04T00:15:56;3.97;;;2.72;;
23236;SDS011;11787;52.018;8.570;2023-06-04T00:18:21;4.25;;;2.45;;
23236;SDS011;11787;52.018;8.570;2023-06-04T00:20:47;3.72;;;2.70;;
23236;SDS011;11787;52.018;8.570;2023-06-04T00:23:12;3.90;;;2.65;;
23236;SDS011;11787;52.018;8.570;2023-06-04T00:25:38;4.40;;;2.72;;
23236;SDS011;11787;52.018;8.570;2023-06-04T00:28:03;4.82;;;3.08;;
23236;SDS011;11787;52.018;8.570;2023-06-04T00:30:29;6.20;;;2.90;;
23236;SDS011;11787;52.018;8.570;2023-06-04T00:32:55;2.88;;;2.47;;
23236;SDS011;11787;52.018;8.570;2023-06-04T00:35:20;3.78;;;2.60;;
23236;SDS011;11787;52.018;8.570;2023-06-04T00:37:46;3.50;;;2.35;;
23236;SDS011;11787;52.018;8.570;2023-06-04T00:40:12;4.10;;;3.10;;
23236;SDS011;11787;52.018;8.570;2023-06-04T00:42:38;4.95;;;3.03;;
23236;SDS011;11787;52.018;8.570;2023-06-04T00:45:04;3.92;;;2.50;;
23236;SDS011;11787;52.018;8.570;2023-06-04T00:47:32;3.42;;;2.70;;
23236;SDS011;11787;52.018;8.570;2023-06-04T00:49:58;3.97;;;2.85;;
23236;SDS011;11787;52.018;8.570;2023-06-04T00:52:24;4.60;;;2.70;;
23236;SDS011;11787;52.018;8.570;2023-06-04T00:54:51;3.78;;;2.50;;
23236;SDS011;11787;52.018;8.570;2023-06-04T00:57:19;4.22;;;2.63;;
23236;SDS011;11787;52.018;8.570;2023-06-04T00:59:48;3.65;;;2.53;;
23236;SDS011;11787;52.018;8.570;2023-06-04T01:02:15;4.45;;;2.83;;
23236;SDS011;11787;52.018;8.570;2023-06-04T01:07:13;4.47;;;2.90;;
23236;SDS011;11787;52.018;8.570;2023-06-04T01:09:40;3.85;;;2.20;;
23236;SDS011;11787;52.018;8.570;2023-06-04T01:12:07;5.13;;;2.70;;
23236;SDS011;11787;52.018;8.570;2023-06-04T01:14:33;3.60;;;2.30;;
23236;SDS011;11787;52.018;8.570;2023-06-04T01:22:52;4.28;;;2.95;;
23236;SDS011;11787;52.018;8.570;2023-06-04T01:25:34;3.47;;;2.63;;
23236;SDS011;11787;52.018;8.570;2023-06-04T01:28:04;6.07;;;2.83;;
23236;SDS011;11787;52.018;8.570;2023-06-04T01:30:32;3.95;;;3.08;;
23236;SDS011;11787;52.018;8.570;2023-06-04T01:33:10;3.35;;;2.63;;
23236;SDS011;11787;52.018;8.570;2023-06-04T01:35:37;4.45;;;2.67;;
23236;SDS011;11787;52.018;8.570;2023-06-04T01:38:03;3.85;;;2.85;;
23236;SDS011;11787;52.018;8.570;2023-06-04T01:40:29;3.58;;;2.42;;
23236;SDS011;11787;52.018;8.570;2023-06-04T01:42:55;5.53;;;2.90;;
23236;SDS011;11787;52.018;8.570;2023-06-04T01:45:21;5.57;;;3.13;;
23236;SDS011;11787;52.018;8.570;2023-06-04T01:47:47;3.88;;;2.40;;
23236;SDS011;11787;52.018;8.570;2023-06-04T01:50:13;3.78;;;2.83;;
23236;SDS011;11787;52.018;8.570;2023-06-04T01:52:39;4.57;;;2.70;;
23236;SDS011;11787;52.018;8.570;2023-06-04T01:55:06;3.08;;;2.20;;
23236;SDS011;11787;52.018;8.570;2023-06-04T01:57:33;4.03;;;2.40;;
23236;SDS011;11787;52.018;8.570;2023-06-04T02:00:00;3.72;;;2.33;;
23236;SDS011;11787;52.018;8.570;2023-06-04T02:02:27;5.18;;;2.20;;
23236;SDS011;11787;52.018;8.570;2023-06-04T02:04:52;4.07;;;2.47;;
23236;SDS011;11787;52.018;8.570;2023-06-04T02:07:18;2.92;;;2.30;;
23236;SDS011;11787;52.018;8.570;2023-06-04T02:09:48;3.85;;;2.45;;
23236;SDS011;11787;52.018;8.570;2023-06-04T02:12:14;3.60;;;2.67;;
23236;SDS011;11787;52.018;8.570;2023-06-04T02:14:40;4.30;;;2.08;;
23236;SDS011;11787;52.018;8.570;2023-06-04T02:17:07;2.95;;;2.25;;
23236;SDS011;11787;52.018;8.570;2023-06-04T02:19:38;4.38;;;2.35;;
23236;SDS011;11787;52.018;8.570;2023-06-04T02:22:10;2.83;;;2.08;;
23236;SDS011;11787;52.018;8.570;2023-06-04T02:24:36;3.83;;;2.53;;
23236;SDS011;11787;52.018;8.570;2023-06-04T02:27:03;4.30;;;2.72;;
23236;SDS011;11787;52.018;8.570;2023-06-04T02:29:30;4.25;;;2.30;;
23236;SDS011;11787;52.018;8.570;2023-06-04T02:31:56;3.28;;;2.40;;
23236;SDS011;11787;52.018;8.570;2023-06-04T02:34:21;3.22;;;2.50;;
23236;SDS011;11787;52.018;8.570;2023-06-04T02:36:48;3.17;;;2.40;;
23236;SDS011;11787;52.018;8.570;2023-06-04T02:39:15;4.70;;;2.53;;
23236;SDS011;11787;52.018;8.570;2023-06-04T02:41:42;4.38;;;2.53;;
23236;SDS011;11787;52.018;8.570;2023-06-04T02:44:07;5.45;;;2.38;;
23236;SDS011;11787;52.018;8.570;2023-06-04T02:46:33;3.63;;;2.60;;
23236;SDS011;11787;52.018;8.570;2023-06-04T02:48:58;5.13;;;2.83;;
23236;SDS011;11787;52.018;8.570;2023-06-04T02:51:24;3.00;;;2.30;;
23236;SDS011;11787;52.018;8.570;2023-06-04T02:53:50;3.80;;;2.42;;
23236;SDS011;11787;52.018;8.570;2023-06-04T02:56:15;3.33;;;2.20;;
23236;SDS011;11787;52.018;8.570;2023-06-04T02:58:50;2.95;;;2.10;;
23236;SDS011;11787;52.018;8.570;2023-06-04T03:01:21;2.95;;;2.40;;
23236;SDS011;11787;52.018;8.570;2023-06-04T03:03:51;5.20;;;3.17;;
23236;SDS011;11787;52.018;8.570;2023-06-04T03:06:17;3.60;;;2.55;;
23236;SDS011;11787;52.018;8.570;2023-06-04T03:08:45;2.70;;;1.95;;
23236;SDS011;11787;52.018;8.570;2023-06-04T03:11:11;2.67;;;2.30;;
23236;SDS011;11787;52.018;8.570;2023-06-04T03:13:37;3.22;;;2.22;;
23236;SDS011;11787;52.018;8.570;2023-06-04T03:16:03;3.55;;;2.13;;
23236;SDS011;11787;52.018;8.570;2023-06-04T03:18:35;3.47;;;2.40;;
23236;SDS011;11787;52.018;8.570;2023-06-04T03:21:02;3.30;;;2.15;;
23236;SDS011;11787;52.018;8.570;2023-06-04T03:23:27;3.65;;;2.10;;
23236;SDS011;11787;52.018;8.570;2023-06-04T03:25:53;2.75;;;2.05;;
23236;SDS011;11787;52.018;8.570;2023-06-04T03:28:18;3.65;;;1.95;;
23236;SDS011;11787;52.018;8.570;2023-06-04T03:30:44;4.57;;;2.22;;
23236;SDS011;11787;52.018;8.570;2023-06-04T03:33:10;2.97;;;2.00;;
23236;SDS011;11787;52.018;8.570;2023-06-04T03:35:35;3.33;;;2.13;;
23236;SDS011;11787;52.018;8.570;2023-06-04T03:38:01;3.55;;;2.10;;
23236;SDS011;11787;52.018;8.570;2023-06-04T03:40:27;2.97;;;2.20;;
23236;SDS011;11787;52.018;8.570;2023-06-04T03:42:52;4.20;;;2.30;;
23236;SDS011;11787;52.018;8.570;2023-06-04T03:45:18;5.30;;;2.10;;
23236;SDS011;11787;52.018;8.570;2023-06-04T03:47:43;3.28;;;2.03;;
23236;SDS011;11787;52.018;8.570;2023-06-04T03:50:09;3.38;;;1.80;;
23236;SDS011;11787;52.018;8.570;2023-06-04T03:52:35;3.35;;;2.17;;
23236;SDS011;11787;52.018;8.570;2023-06-04T03:55:01;3.20;;;2.00;;
23236;SDS011;11787;52.018;8.570;2023-06-04T03:57:26;2.17;;;1.52;;
23236;SDS011;11787;52.018;8.570;2023-06-04T03:59:52;2.38;;;1.65;;
23236;SDS011;11787;52.018;8.570;2023-06-04T04:02:18;2.67;;;1.80;;
23236;SDS011;11787;52.018;8.570;2023-06-04T04:04:43;2.72;;;1.70;;
23236;SDS011;11787;52.018;8.570;2023-06-04T04:07:09;2.55;;;2.10;;
23236;SDS011;11787;52.018;8.570;2023-06-04T04:09:35;3.92;;;1.98;;
23236;SDS011;11787;52.018;8.570;2023-06-04T04:12:01;3.30;;;1.98;;
23236;SDS011;11787;52.018;8.570;2023-06-04T04:14:28;4.13;;;1.92;;
23236;SDS011;11787;52.018;8.570;2023-06-04T04:16:53;3.60;;;1.50;;
23236;SDS011;11787;52.018;8.570;2023-06-04T04:19:19;3.72;;;2.00;;
23236;SDS011;11787;52.018;8.570;2023-06-04T04:21:45;3.67;;;1.95;;
23236;SDS011;11787;52.018;8.570;2023-06-04T04:24:23;3.17;;;1.70;;
23236;SDS011;11787;52.018;8.570;2023-06-04T04:26:53;4.10;;;1.80;;
23236;SDS011;11787;52.018;8.570;2023-06-04T04:29:20;3.38;;;1.80;;
23236;SDS011;11787;52.018;8.570;2023-06-04T04:31:50;1.90;;;1.63;;
23236;SDS011;11787;52.018;8.570;2023-06-04T04:34:16;2.85;;;1.70;;
23236;SDS011;11787;52.018;8.570;2023-06-04T04:36:42;2.80;;;1.63;;
23236;SDS011;11787;52.018;8.570;2023-06-04T04:39:09;2.38;;;1.77;;
23236;SDS011;11787;52.018;8.570;2023-06-04T04:41:35;2.13;;;1.60;;
23236;SDS011;11787;52.018;8.570;2023-06-04T04:44:05;4.18;;;1.75;;
23236;SDS011;11787;52.018;8.570;2023-06-04T04:46:31;2.47;;;2.00;;
23236;SDS011;11787;52.018;8.570;2023-06-04T04:48:56;3.83;;;1.55;;
23236;SDS011;11787;52.018;8.570;2023-06-04T04:51:22;4.90;;;2.00;;
23236;SDS011;11787;52.018;8.570;2023-06-04T04:53:48;4.68;;;1.83;;
23236;SDS011;11787;52.018;8.570;2023-06-04T04:56:13;3.15;;;1.67;;
23236;SDS011;11787;52.018;8.570;2023-06-04T04:58:39;5.43;;;2.10;;
23236;SDS011;11787;52.018;8.570;2023-06-04T05:01:05;2.65;;;1.75;;
23236;SDS011;11787;52.018;8.570;2023-06-04T05:03:30;2.42;;;1.40;;
23236;SDS011;11787;52.018;8.570;2023-06-04T05:05:56;3.30;;;1.80;;
23236;SDS011;11787;52.018;8.570;2023-06-04T05:08:22;2.47;;;1.80;;
23236;SDS011;11787;52.018;8.570;2023-06-04T05:10:48;4.70;;;1.90;;
23236;SDS011;11787;52.018;8.570;2023-06-04T05:13:15;1.95;;;1.70;;
23236;SDS011;11787;52.018;8.570;2023-06-04T05:15:41;2.55;;;1.63;;
23236;SDS011;11787;52.018;8.570;2023-06-04T05:18:07;3.42;;;1.83;;
23236;SDS011;11787;52.018;8.570;2023-06-04T05:20:33;2.47;;;1.52;;
23236;SDS011;11787;52.018;8.570;2023-06-04T05:23:00;2.50;;;1.77;;
23236;SDS011;11787;52.018;8.570;2023-06-04T05:25:27;4.82;;;1.70;;
23236;SDS011;11787;52.018;8.570;2023-06-04T05:27:53;2.15;;;1.63;;
23236;SDS011;11787;52.018;8.570;2023-06-04T05:30:20;2.63;;;1.73;;
23236;SDS011;11787;52.018;8.570;2023-06-04T05:32:46;2.35;;;1.50;;
23236;SDS011;11787;52.018;8.570;2023-06-04T05:35:12;4.47;;;2.13;;
23236;SDS011;11787;52.018;8.570;2023-06-04T05:37:38;2.00;;;1.35;;
23236;SDS011;11787;52.018;8.570;2023-06-04T05:40:07;4.20;;;1.75;;
23236;SDS011;11787;52.018;8.570;2023-06-04T05:42:33;4.30;;;2.00;;
23236;SDS011;11787;52.018;8.570;2023-06-04T05:44:59;2.17;;;1.25;;
23236;SDS011;11787;52.018;8.570;2023-06-04T05:47:25;3.45;;;1.40;;
23236;SDS011;11787;52.018;8.570;2023-06-04T05:49:53;2.55;;;1.70;;
23236;SDS011;11787;52.018;8.570;2023-06-04T05:52:19;2.47;;;1.40;;
23236;SDS011;11787;52.018;8.570;2023-06-04T05:54:45;5.70;;;1.60;;
23236;SDS011;11787;52.018;8.570;2023-06-04T05:57:10;2.70;;;1.55;;
23236;SDS011;11787;52.018;8.570;2023-06-04T05:59:36;5.13;;;1.70;;
23236;SDS011;11787;52.018;8.570;2023-06-04T06:02:01;2.08;;;1.55;;
23236;SDS011;11787;52.018;8.570;2023-06-04T06:04:27;2.55;;;1.70;;
23236;SDS011;11787;52.018;8.570;2023-06-04T06:06:53;2.00;;;1.40;;
23236;SDS011;11787;52.018;8.570;2023-06-04T06:09:19;2.50;;;1.60;;
23236;SDS011;11787;52.018;8.570;2023-06-04T06:11:45;3.45;;;1.63;;
23236;SDS011;11787;52.018;8.570;2023-06-04T06:14:10;4.00;;;1.60;;
23236;SDS011;11787;52.018;8.570;2023-06-04T06:16:36;3.60;;;1.88;;
23236;SDS011;11787;52.018;8.570;2023-06-04T06:19:02;2.40;;;1.30;;
23236;SDS011;11787;52.018;8.570;2023-06-04T06:21:28;2.03;;;1.30;;
23236;SDS011;11787;52.018;8.570;2023-06-04T06:23:53;1.75;;;1.38;;
23236;SDS011;11787;52.018;8.570;2023-06-04T06:26:19;2.03;;;1.55;;
23236;SDS011;11787;52.018;8.570;2023-06-04T06:28:46;3.42;;;1.40;;
23236;SDS011;11787;52.018;8.570;2023-06-04T06:31:12;1.90;;;1.30;;
23236;SDS011;11787;52.018;8.570;2023-06-04T06:33:38;1.75;;;1.40;;
23236;SDS011;11787;52.018;8.570;2023-06-04T06:36:06;1.85;;;1.50;;
23236;SDS011;11787;52.018;8.570;2023-06-04T06:38:32;2.38;;;1.42;;
23236;SDS011;11787;52.018;8.570;2023-06-04T06:40:58;2.60;;;1.55;;
23236;SDS011;11787;52.018;8.570;2023-06-04T06:43:24;2.92;;;1.38;;
23236;SDS011;11787;52.018;8.570;2023-06-04T06:45:49;1.75;;;1.42;;
23236;SDS011;11787;52.018;8.570;2023-06-04T06:48:15;2.78;;;1.60;;
23236;SDS011;11787;52.018;8.570;2023-06-04T06:50:42;2.88;;;1.60;;
23236;SDS011;11787;52.018;8.570;2023-06-04T06:53:07;3.72;;;1.38;;
23236;SDS011;11787;52.018;8.570;2023-06-04T06:55:33;3.33;;;1.90;;
23236;SDS011;11787;52.018;8.570;2023-06-04T06:57:58;4.05;;;1.98;;
23236;SDS011;11787;52.018;8.570;2023-06-04T07:00:25;2.22;;;1.35;;
23236;SDS011;11787;52.018;8.570;2023-06-04T07:02:52;3.97;;;1.80;;
23236;SDS011;11787;52.018;8.570;2023-06-04T07:05:18;5.13;;;1.45;;
23236;SDS011;11787;52.018;8.570;2023-06-04T07:07:44;2.45;;;1.15;;
23236;SDS011;11787;52.018;8.570;2023-06-04T07:10:11;3.35;;;1.60;;
23236;SDS011;11787;52.018;8.570;2023-06-04T07:12:36;2.10;;;1.38;;
23236;SDS011;11787;52.018;8.570;2023-06-04T07:15:03;3.13;;;1.48;;
23236;SDS011;11787;52.018;8.570;2023-06-04T07:17:30;3.08;;;1.45;;
23236;SDS011;11787;52.018;8.570;2023-06-04T07:19:55;2.95;;;1.58;;
23236;SDS011;11787;52.018;8.570;2023-06-04T07:22:21;4.82;;;1.38;;
23236;SDS011;11787;52.018;8.570;2023-06-04T07:24:47;3.17;;;1.50;;
23236;SDS011;11787;52.018;8.570;2023-06-04T07:27:12;4.00;;;1.52;;
23236;SDS011;11787;52.018;8.570;2023-06-04T07:29:39;2.63;;;1.45;;
23236;SDS011;11787;52.018;8.570;2023-06-04T07:32:05;4.47;;;1.63;;
23236;SDS011;11787;52.018;8.570;2023-06-04T07:34:31;3.30;;;1.50;;
23236;SDS011;11787;52.018;8.570;2023-06-04T07:36:57;3.20;;;1.55;;
23236;SDS011;11787;52.018;8.570;2023-06-04T07:39:23;2.50;;;1.63;;
23236;SDS011;11787;52.018;8.570;2023-06-04T07:41:48;2.08;;;1.38;;
23236;SDS011;11787;52.018;8.570;2023-06-04T07:44:14;3.45;;;1.48;;
23236;SDS011;11787;52.018;8.570;2023-06-04T07:46:40;2.53;;;1.67;;
23236;SDS011;11787;52.018;8.570;2023-06-04T07:49:06;4.53;;;1.73;;
23236;SDS011;11787;52.018;8.570;2023-06-04T07:51:31;4.05;;;1.48;;
23236;SDS011;11787;52.018;8.570;2023-06-04T07:53:57;6.20;;;2.03;;
23236;SDS011;11787;52.018;8.570;2023-06-04T07:56:22;4.75;;;1.50;;
23236;SDS011;11787;52.018;8.570;2023-06-04T07:58:48;4.95;;;1.52;;
23236;SDS011;11787;52.018;8.570;2023-06-04T08:01:13;3.75;;;1.50;;
23236;SDS011;11787;52.018;8.570;2023-06-04T08:03:39;3.50;;;1.58;;
23236;SDS011;11787;52.018;8.570;2023-06-04T08:06:06;3.00;;;1.73;;
23236;SDS011;11787;52.018;8.570;2023-06-04T08:08:32;2.75;;;1.52;;
23236;SDS011;11787;52.018;8.570;2023-06-04T08:10:58;2.13;;;1.73;;
23236;SDS011;11787;52.018;8.570;2023-06-04T08:13:24;2.20;;;1.50;;
23236;SDS011;11787;52.018;8.570;2023-06-04T08:15:50;3.45;;;1.70;;
23236;SDS011;11787;52.018;8.570;2023-06-04T08:18:15;2.05;;;1.67;;
23236;SDS011;11787;52.018;8.570;2023-06-04T08:20:41;2.25;;;1.65;;
23236;SDS011;11787;52.018;8.570;2023-06-04T08:23:07;3.50;;;1.60;;
23236;SDS011;11787;52.018;8.570;2023-06-04T08:25:32;2.50;;;1.83;;
23236;SDS011;11787;52.018;8.570;2023-06-04T08:27:58;4.38;;;1.75;;
23236;SDS011;11787;52.018;8.570;2023-06-04T08:30:24;3.53;;;1.95;;
23236;SDS011;11787;52.018;8.570;2023-06-04T08:32:50;3.25;;;1.80;;
23236;SDS011;11787;52.018;8.570;2023-06-04T08:35:16;2.58;;;2.00;;
23236;SDS011;11787;52.018;8.570;2023-06-04T08:37:42;2.17;;;1.98;;
23236;SDS011;11787;52.018;8.570;2023-06-04T08:40:08;3.80;;;2.25;;
23236;SDS011;11787;52.018;8.570;2023-06-04T08:42:38;3.40;;;2.28;;
23236;SDS011;11787;52.018;8.570;2023-06-04T08:45:09;4.78;;;2.63;;
23236;SDS011;11787;52.018;8.570;2023-06-04T08:47:37;4.20;;;2.55;;
23236;SDS011;11787;52.018;8.570;2023-06-04T08:50:09;5.70;;;2.17;;
23236;SDS011;11787;52.018;8.570;2023-06-04T08:52:36;3.25;;;2.05;;
23236;SDS011;11787;52.018;8.570;2023-06-04T08:55:03;2.97;;;2.33;;
23236;SDS011;11787;52.018;8.570;2023-06-04T08:57:30;2.80;;;2.10;;
23236;SDS011;11787;52.018;8.570;2023-06-04T08:59:56;6.38;;;2.30;;
23236;SDS011;11787;52.018;8.570;2023-06-04T09:02:21;4.90;;;2.00;;
23236;SDS011;11787;52.018;8.570;2023-06-04T09:04:47;4.22;;;2.50;;
23236;SDS011;11787;52.018;8.570;2023-06-04T09:07:14;5.65;;;2.45;;
23236;SDS011;11787;52.018;8.570;2023-06-04T09:09:42;2.35;;;1.90;;
23236;SDS011;11787;52.018;8.570;2023-06-04T09:44:31;2.85;;;1.70;;
23236;SDS011;11787;52.018;8.570;2023-06-04T11:06:15;3.42;;;1.70;;
23236;SDS011;11787;52.018;8.570;2023-06-04T11:08:43;2.40;;;1.85;;
23236;SDS011;11787;52.018;8.570;2023-06-04T11:11:12;3.67;;;1.60;;
23236;SDS011;11787;52.018;8.570;2023-06-04T11:13:39;2.65;;;1.48;;
23236;SDS011;11787;52.018;8.570;2023-06-04T11:16:20;2.10;;;1.67;;
23236;SDS011;11787;52.018;8.570;2023-06-04T11:18:56;2.17;;;1.40;;
23236;SDS011;11787;52.018;8.570;2023-06-04T11:21:22;3.40;;;1.77;;
23236;SDS011;11787;52.018;8.570;2023-06-04T11:23:48;3.40;;;1.45;;
23236;SDS011;11787;52.018;8.570;2023-06-04T11:26:14;3.88;;;1.50;;
23236;SDS011;11787;52.018;8.570;2023-06-04T11:28:40;2.42;;;1.58;;
23236;SDS011;11787;52.018;8.570;2023-06-04T11:31:06;3.22;;;1.70;;
23236;SDS011;11787;52.018;8.570;2023-06-04T11:33:45;1.67;;;1.40;;
23236;SDS011;11787;52.018;8.570;2023-06-04T11:36:24;2.05;;;1.52;;
23236;SDS011;11787;52.018;8.570;2023-06-04T11:38:58;3.05;;;1.40;;
23236;SDS011;11787;52.018;8.570;2023-06-04T11:41:27;1.50;;;1.40;;
23236;SDS011;11787;52.018;8.570;2023-06-04T11:43:55;3.05;;;1.27;;
23236;SDS011;11787;52.018;8.570;2023-06-04T11:46:21;4.68;;;1.40;;
23236;SDS011;11787;52.018;8.570;2023-06-04T11:48:50;5.78;;;1.70;;
23236;SDS011;11787;52.018;8.570;2023-06-04T11:51:16;4.35;;;1.50;;
23236;SDS011;11787;52.018;8.570;2023-06-04T11:53:42;2.35;;;1.27;;
23236;SDS011;11787;52.018;8.570;2023-06-04T11:56:08;3.67;;;1.63;;
23236;SDS011;11787;52.018;8.570;2023-06-04T11:58:34;4.63;;;1.30;;
23236;SDS011;11787;52.018;8.570;2023-06-04T12:01:00;4.03;;;1.48;;
23236;SDS011;11787;52.018;8.570;2023-06-04T12:03:35;3.70;;;1.50;;
23236;SDS011;11787;52.018;8.570;2023-06-04T12:06:15;1.95;;;1.33;;
23236;SDS011;11787;52.018;8.570;2023-06-04T12:08:46;4.43;;;1.60;;
23236;SDS011;11787;52.018;8.570;2023-06-04T12:11:31;1.80;;;1.23;;
23236;SDS011;11787;52.018;8.570;2023-06-04T12:13:59;2.13;;;1.33;;
23236;SDS011;11787;52.018;8.570;2023-06-04T12:16:29;3.28;;;1.27;;
23236;SDS011;11787;52.018;8.570;2023-06-04T12:19:05;3.80;;;1.40;;
23236;SDS011;11787;52.018;8.570;2023-06-04T12:21:34;3.78;;;1.45;;
23236;SDS011;11787;52.018;8.570;2023-06-04T12:24:11;1.63;;;1.35;;
23236;SDS011;11787;52.018;8.570;2023-06-04T12:26:40;2.42;;;1.58;;
23236;SDS011;11787;52.018;8.570;2023-06-04T12:31:41;1.98;;;1.15;;
23236;SDS011;11787;52.018;8.570;2023-06-04T12:34:09;3.05;;;1.27;;
23236;SDS011;11787;52.018;8.570;2023-06-04T12:36:35;4.97;;;1.42;;
23236;SDS011;11787;52.018;8.570;2023-06-04T12:39:02;3.08;;;1.40;;
23236;SDS011;11787;52.018;8.570;2023-06-04T12:41:30;2.28;;;1.10;;
23236;SDS011;11787;52.018;8.570;2023-06-04T12:43:56;2.67;;;1.30;;
23236;SDS011;11787;52.018;8.570;2023-06-04T12:46:22;2.45;;;1.10;;
23236;SDS011;11787;52.018;8.570;2023-06-04T12:48:49;3.40;;;1.42;;
23236;SDS011;11787;52.018;8.570;2023-06-04T12:51:15;2.17;;;1.45;;
23236;SDS011;11787;52.018;8.570;2023-06-04T12:53:41;6.78;;;1.23;;
23236;SDS011;11787;52.018;8.570;2023-06-04T12:56:07;5.18;;;1.45;;
23236;SDS011;11787;52.018;8.570;2023-06-04T12:58:33;4.00;;;1.15;;
23236;SDS011;11787;52.018;8.570;2023-06-04T13:00:59;3.28;;;1.40;;
23236;SDS011;11787;52.018;8.570;2023-06-04T13:03:25;3.17;;;1.25;;
23236;SDS011;11787;52.018;8.570;2023-06-04T13:05:51;5.25;;;1.27;;
23236;SDS011;11787;52.018;8.570;2023-06-04T13:08:18;2.17;;;1.33;;
23236;SDS011;11787;52.018;8.570;2023-06-04T13:10:45;2.28;;;1.00;;
23236;SDS011;11787;52.018;8.570;2023-06-04T13:13:11;2.17;;;1.17;;
23236;SDS011;11787;52.018;8.570;2023-06-04T13:15:37;1.45;;;1.33;;
23236;SDS011;11787;52.018;8.570;2023-06-04T13:18:02;1.90;;;1.02;;
23236;SDS011;11787;52.018;8.570;2023-06-04T13:20:28;2.55;;;1.10;;
23236;SDS011;11787;52.018;8.570;2023-06-04T13:22:54;3.30;;;1.27;;
23236;SDS011;11787;52.018;8.570;2023-06-04T13:25:19;2.88;;;2.30;;
23236;SDS011;11787;52.018;8.570;2023-06-04T13:27:47;3.72;;;1.95;;
23236;SDS011;11787;52.018;8.570;2023-06-04T13:30:13;2.10;;;1.42;;
23236;SDS011;11787;52.018;8.570;2023-06-04T13:32:39;4.97;;;1.13;;
23236;SDS011;11787;52.018;8.570;2023-06-04T13:35:04;2.10;;;1.00;;
23236;SDS011;11787;52.018;8.570;2023-06-04T13:37:31;2.90;;;1.10;;
23236;SDS011;11787;52.018;8.570;2023-06-04T13:39:56;2.22;;;1.20;;
23236;SDS011;11787;52.018;8.570;2023-06-04T13:42:22;3.78;;;1.13;;
23236;SDS011;11787;52.018;8.570;2023-06-04T13:44:47;2.38;;;0.85;;
23236;SDS011;11787;52.018;8.570;2023-06-04T13:47:13;1.40;;;1.00;;
23236;SDS011;11787;52.018;8.570;2023-06-04T13:49:39;3.65;;;1.17;;
23236;SDS011;11787;52.018;8.570;2023-06-04T13:52:04;2.08;;;1.05;;
23236;SDS011;11787;52.018;8.570;2023-06-04T13:54:30;2.15;;;0.98;;
23236;SDS011;11787;52.018;8.570;2023-06-04T13:56:56;2.20;;;0.98;;
23236;SDS011;11787;52.018;8.570;2023-06-04T13:59:22;2.50;;;0.90;;
23236;SDS011;11787;52.018;8.570;2023-06-04T14:01:47;1.70;;;0.98;;
23236;SDS011;11787;52.018;8.570;2023-06-04T14:04:13;2.03;;;1.05;;
23236;SDS011;11787;52.018;8.570;2023-06-04T14:06:39;1.30;;;0.98;;
23236;SDS011;11787;52.018;8.570;2023-06-04T14:09:04;1.73;;;0.95;;
23236;SDS011;11787;52.018;8.570;2023-06-04T14:11:34;1.70;;;1.20;;
23236;SDS011;11787;52.018;8.570;2023-06-04T14:14:00;1.35;;;1.05;;
23236;SDS011;11787;52.018;8.570;2023-06-04T14:16:25;4.28;;;2.17;;
23236;SDS011;11787;52.018;8.570;2023-06-04T14:18:51;1.50;;;1.00;;
23236;SDS011;11787;52.018;8.570;2023-06-04T14:21:17;1.15;;;0.98;;
23236;SDS011;11787;52.018;8.570;2023-06-04T14:23:42;4.70;;;1.10;;
23236;SDS011;11787;52.018;8.570;2023-06-04T14:26:08;1.73;;;0.95;;
23236;SDS011;11787;52.018;8.570;2023-06-04T14:28:33;2.22;;;1.00;;
23236;SDS011;11787;52.018;8.570;2023-06-04T14:30:59;2.45;;;0.90;;
23236;SDS011;11787;52.018;8.570;2023-06-04T14:33:25;3.22;;;1.00;;
23236;SDS011;11787;52.018;8.570;2023-06-04T14:35:51;2.78;;;1.10;;
23236;SDS011;11787;52.018;8.570;2023-06-04T14:38:16;6.88;;;1.10;;
23236;SDS011;11787;52.018;8.570;2023-06-04T14:40:42;2.30;;;1.13;;
23236;SDS011;11787;52.018;8.570;2023-06-04T14:43:11;2.05;;;1.13;;
23236;SDS011;11787;52.018;8.570;2023-06-04T14:45:37;2.33;;;1.30;;
23236;SDS011;11787;52.018;8.570;2023-06-04T14:48:04;2.97;;;1.23;;
23236;SDS011;11787;52.018;8.570;2023-06-04T14:50:30;2.10;;;0.80;;
23236;SDS011;11787;52.018;8.570;2023-06-04T14:52:56;4.60;;;1.15;;
23236;SDS011;11787;52.018;8.570;2023-06-04T14:55:21;1.80;;;1.40;;
23236;SDS011;11787;52.018;8.570;2023-06-04T14:57:49;2.42;;;1.20;;
23236;SDS011;11787;52.018;8.570;2023-06-04T15:00:15;1.92;;;1.20;;
23236;SDS011;11787;52.018;8.570;2023-06-04T15:02:41;1.92;;;1.10;;
23236;SDS011;11787;52.018;8.570;2023-06-04T15:05:07;1.48;;;1.00;;
23236;SDS011;11787;52.018;8.570;2023-06-04T15:07:33;3.05;;;1.10;;
23236;SDS011;11787;52.018;8.570;2023-06-04T15:09:59;1.95;;;1.20;;
23236;SDS011;11787;52.018;8.570;2023-06-04T15:12:27;2.60;;;1.10;;
23236;SDS011;11787;52.018;8.570;2023-06-04T15:14:52;1.55;;;1.02;;
23236;SDS011;11787;52.018;8.570;2023-06-04T15:17:18;1.90;;;0.98;;
23236;SDS011;11787;52.018;8.570;2023-06-04T15:19:44;3.63;;;1.13;;
23236;SDS011;11787;52.018;8.570;2023-06-04T15:22:09;2.95;;;1.20;;
23236;SDS011;11787;52.018;8.570;2023-06-04T15:24:35;3.30;;;0.90;;
23236;SDS011;11787;52.018;8.570;2023-06-04T15:27:00;1.25;;;0.98;;
23236;SDS011;11787;52.018;8.570;2023-06-04T15:29:26;3.45;;;1.08;;
23236;SDS011;11787;52.018;8.570;2023-06-04T15:31:52;2.28;;;1.20;;
23236;SDS011;11787;52.018;8.570;2023-06-04T15:34:17;1.83;;;1.05;;
23236;SDS011;11787;52.018;8.570;2023-06-04T15:36:43;2.75;;;1.02;;
23236;SDS011;11787;52.018;8.570;2023-06-04T15:39:11;1.50;;;1.00;;
23236;SDS011;11787;52.018;8.570;2023-06-04T15:41:37;1.75;;;1.02;;
23236;SDS011;11787;52.018;8.570;2023-06-04T15:44:02;3.53;;;1.40;;
23236;SDS011;11787;52.018;8.570;2023-06-04T15:46:28;2.92;;;1.10;;
23236;SDS011;11787;52.018;8.570;2023-06-04T15:48:54;2.20;;;1.15;;
23236;SDS011;11787;52.018;8.570;2023-06-04T15:51:20;2.00;;;1.20;;
23236;SDS011;11787;52.018;8.570;2023-06-04T15:53:46;1.85;;;1.17;;
23236;SDS011;11787;52.018;8.570;2023-06-04T15:56:12;2.35;;;1.15;;
23236;SDS011;11787;52.018;8.570;2023-06-04T15:58:40;3.47;;;0.90;;
23236;SDS011;11787;52.018;8.570;2023-06-04T16:01:07;3.22;;;1.00;;
23236;SDS011;11787;52.018;8.570;2023-06-04T16:23:30;1.85;;;1.10;;
23236;SDS011;11787;52.018;8.570;2023-06-04T16:25:55;3.60;;;1.38;;
23236;SDS011;11787;52.018;8.570;2023-06-04T16:28:21;1.75;;;1.05;;
23236;SDS011;11787;52.018;8.570;2023-06-04T16:30:46;1.42;;;1.10;;
23236;SDS011;11787;52.018;8.570;2023-06-04T16:33:12;1.52;;;1.10;;
23236;SDS011;11787;52.018;8.570;2023-06-04T16:35:38;3.67;;;1.15;;
23236;SDS011;11787;52.018;8.570;2023-06-04T16:38:03;2.33;;;1.15;;
23236;SDS011;11787;52.018;8.570;2023-06-04T16:40:29;1.92;;;0.93;;
23236;SDS011;11787;52.018;8.570;2023-06-04T16:42:55;3.42;;;1.05;;
23236;SDS011;11787;52.018;8.570;2023-06-04T16:45:20;1.23;;;1.00;;
23236;SDS011;11787;52.018;8.570;2023-06-04T16:47:46;1.25;;;1.15;;
23236;SDS011;11787;52.018;8.570;2023-06-04T16:50:13;1.25;;;0.95;;
23236;SDS011;11787;52.018;8.570;2023-06-04T16:52:39;2.65;;;1.02;;
23236;SDS011;11787;52.018;8.570;2023-06-04T16:55:05;2.25;;;1.35;;
23236;SDS011;11787;52.018;8.570;2023-06-04T16:57:33;1.45;;;1.05;;
23236;SDS011;11787;52.018;8.570;2023-06-04T16:59:59;1.52;;;1.10;;
23236;SDS011;11787;52.018;8.570;2023-06-04T17:02:25;2.33;;;0.90;;
23236;SDS011;11787;52.018;8.570;2023-06-04T17:04:50;2.70;;;1.05;;
23236;SDS011;11787;52.018;8.570;2023-06-04T17:07:16;1.88;;;1.13;;